createdAt,value
2018-11-25T00:00:15.526Z,0
2018-11-25T00:05:15.544Z,0
2018-11-25T00:10:17.184Z,0
2018-11-25T00:15:15.986Z,0
2018-11-25T00:20:15.574Z,0
2018-11-25T00:25:15.349Z,0
2018-11-25T00:30:15.776Z,0
2018-11-25T00:35:15.269Z,0
2018-11-25T00:40:15.646Z,0
2018-11-25T00:45:15.510Z,0
2018-11-25T00:50:15.455Z,0
2018-11-25T00:55:15.634Z,0
2018-11-25T01:00:15.356Z,0
2018-11-25T01:05:16.771Z,0
2018-11-25T01:10:17.566Z,0
2018-11-25T01:15:16.243Z,0
2018-11-25T01:20:17.650Z,0
2018-11-25T01:25:17.338Z,0
2018-11-25T01:30:15.493Z,0
2018-11-25T01:35:15.800Z,0
2018-11-25T01:40:15.359Z,0
2018-11-25T01:45:15.996Z,0
2018-11-25T01:50:15.299Z,0
2018-11-25T01:55:17.564Z,0
2018-11-25T02:00:15.613Z,0
2018-11-25T02:05:16.387Z,0
2018-11-25T02:10:17.749Z,0
2018-11-25T02:15:16.011Z,0
2018-11-25T02:20:15.767Z,0
2018-11-25T02:25:17.494Z,0
2018-11-25T02:30:15.437Z,0
2018-11-25T02:35:15.992Z,0
2018-11-25T02:40:15.474Z,0
2018-11-25T02:45:16.390Z,0
2018-11-25T02:50:16.627Z,0
2018-11-25T02:55:20.394Z,0
2018-11-25T03:00:16.783Z,0
2018-11-25T03:05:15.264Z,0
2018-11-25T03:10:17.601Z,0
2018-11-25T03:15:15.448Z,0
2018-11-25T03:20:19.463Z,0
2018-11-25T03:25:17.439Z,0
2018-11-25T03:30:15.505Z,0
2018-11-25T03:35:15.197Z,0
2018-11-25T03:40:16.482Z,0
2018-11-25T03:45:15.294Z,0
2018-11-25T03:50:15.169Z,0
2018-11-25T03:55:15.352Z,0
2018-11-25T04:00:15.207Z,0
2018-11-25T04:05:15.146Z,0
2018-11-25T04:10:15.051Z,0
2018-11-25T04:15:15.446Z,0
2018-11-25T04:20:15.739Z,0
2018-11-25T04:25:16.678Z,0
2018-11-25T04:30:15.017Z,0
2018-11-25T04:35:15.478Z,0
2018-11-25T04:40:19.111Z,0
2018-11-25T04:45:14.960Z,0
2018-11-25T04:50:16.607Z,0
2018-11-25T04:55:15.200Z,0
2018-11-25T05:00:16.492Z,0
2018-11-25T05:05:15.492Z,0
2018-11-25T05:10:16.642Z,0
2018-11-25T05:15:16.234Z,0
2018-11-25T05:20:15.230Z,0
2018-11-25T05:25:14.990Z,0
2018-11-25T05:30:15.057Z,0
2018-11-25T05:35:15.067Z,0
2018-11-25T05:40:14.837Z,0
2018-11-25T05:45:15.076Z,0
2018-11-25T05:50:15.681Z,0
2018-11-25T05:55:14.891Z,0
2018-11-25T06:00:15.302Z,0
2018-11-25T06:05:14.808Z,0
2018-11-25T06:10:16.240Z,0
2018-11-25T06:15:15.260Z,0
2018-11-25T06:20:15.244Z,0
2018-11-25T06:25:15.868Z,0
2018-11-25T06:30:15.033Z,0
2018-11-25T06:35:14.746Z,0
2018-11-25T06:40:16.096Z,0
2018-11-25T06:45:15.294Z,0
2018-11-25T06:50:15.187Z,0
2018-11-25T06:55:14.716Z,0
2018-11-25T07:00:15.403Z,0
2018-11-25T07:05:15.008Z,0
2018-11-25T07:10:17.257Z,0
2018-11-25T07:15:14.870Z,0.8
2018-11-25T07:20:17.338Z,0.8
2018-11-25T07:25:17.908Z,1.7
2018-11-25T07:30:14.748Z,2.5
2018-11-25T07:35:14.873Z,2.5
2018-11-25T07:40:17.691Z,3.3
2018-11-25T07:45:14.518Z,3.3
2018-11-25T07:50:15.402Z,5
2018-11-25T07:55:14.640Z,7.5
2018-11-25T08:00:15.300Z,10
2018-11-25T08:05:15.279Z,10.8
2018-11-25T08:10:17.747Z,12.5
2018-11-25T08:15:15.203Z,14.2
2018-11-25T08:20:15.285Z,17.5
2018-11-25T08:25:14.591Z,20.8
2018-11-25T08:30:15.190Z,19.2
2018-11-25T08:35:23.390Z,19.2
2018-11-25T08:40:15.160Z,24.2
2018-11-25T08:45:15.586Z,25.8
2018-11-25T08:50:14.919Z,23.3
2018-11-25T08:55:16.062Z,23.3
2018-11-25T09:00:15.378Z,25
2018-11-25T09:05:14.638Z,15.8
2018-11-25T09:10:16.125Z,15.8
2018-11-25T09:15:14.845Z,11.7
2018-11-25T09:20:14.689Z,12.5
2018-11-25T09:25:16.517Z,15.8
2018-11-25T09:30:14.579Z,21.7
2018-11-25T09:35:14.709Z,18.3
2018-11-25T09:40:14.424Z,15
2018-11-25T09:45:14.742Z,17.5
2018-11-25T09:50:14.650Z,16.7
2018-11-25T09:55:15.682Z,18.3
2018-11-25T10:00:15.260Z,21.7
2018-11-25T10:05:14.634Z,25
2018-11-25T10:10:14.413Z,29.2
2018-11-25T10:15:14.476Z,27.5
2018-11-25T10:20:14.574Z,25
2018-11-25T10:25:16.179Z,25
2018-11-25T10:30:14.542Z,29.2
2018-11-25T10:35:14.578Z,26.7
2018-11-25T10:40:14.406Z,25
2018-11-25T10:45:14.658Z,34.2
2018-11-25T10:50:14.521Z,35
2018-11-25T10:55:14.310Z,38.3
2018-11-25T11:00:15.022Z,36.7
2018-11-25T11:05:14.618Z,43.3
2018-11-25T11:10:14.369Z,35.8
2018-11-25T11:15:14.308Z,54.2
2018-11-25T11:20:14.967Z,49.2
2018-11-25T11:25:16.178Z,36.7
2018-11-25T11:30:14.412Z,29.2
2018-11-25T11:35:14.559Z,30.8
2018-11-25T11:40:14.213Z,33.3
2018-11-25T11:45:14.315Z,27.5
2018-11-25T11:50:14.281Z,25.8
2018-11-25T11:55:16.198Z,24.2
2018-11-25T12:00:14.604Z,26.7
2018-11-25T12:05:21.152Z,25
2018-11-25T12:10:14.867Z,28.3
2018-11-25T12:15:14.678Z,28.3
2018-11-25T12:20:14.638Z,30.8
2018-11-25T12:25:14.353Z,26.7
2018-11-25T12:30:14.380Z,26.7
2018-11-25T12:35:14.086Z,26.7
2018-11-25T12:40:15.434Z,25
2018-11-25T12:45:14.453Z,26.7
2018-11-25T12:50:14.722Z,18.3
2018-11-25T12:55:14.491Z,20
2018-11-25T13:00:14.384Z,11.7
2018-11-25T13:05:14.068Z,15.8
2018-11-25T13:10:14.179Z,15
2018-11-25T13:15:14.083Z,11.7
2018-11-25T13:20:14.412Z,15
2018-11-25T13:25:14.164Z,12.5
2018-11-25T13:30:14.196Z,14.2
2018-11-25T13:35:14.411Z,13.3
2018-11-25T13:40:14.585Z,10.8
2018-11-25T13:45:14.020Z,10.8
2018-11-25T13:50:14.698Z,12.5
2018-11-25T13:55:14.735Z,15.8
2018-11-25T14:00:14.520Z,14.2
2018-11-25T14:05:14.464Z,10
2018-11-25T14:10:14.162Z,6.7
2018-11-25T14:15:14.432Z,4.2
2018-11-25T14:20:13.963Z,4.2
2018-11-25T14:25:14.233Z,3.3
2018-11-25T14:30:14.185Z,2.5
2018-11-25T14:35:14.357Z,2.5
2018-11-25T14:40:15.062Z,1.7
2018-11-25T14:45:14.142Z,2.5
2018-11-25T14:50:14.903Z,1.7
2018-11-25T14:55:15.956Z,1.7
2018-11-25T15:00:14.487Z,1.7
2018-11-25T15:05:14.404Z,0.8
2018-11-25T15:10:16.156Z,0.8
2018-11-25T15:15:14.044Z,0.8
2018-11-25T15:37:11.813Z,0.8
2018-11-25T15:38:07.533Z,0
2018-11-25T15:39:35.313Z,0
2018-11-25T15:44:54.487Z,0
2018-11-25T15:45:29.926Z,0
2018-11-25T15:47:40.910Z,0
2018-11-25T15:50:18.783Z,0
2018-11-25T15:55:21.754Z,0
2018-11-25T16:05:20.561Z,0
2018-11-25T16:30:24.593Z,0
2018-11-25T16:35:16.762Z,0
2018-11-25T16:40:16.301Z,0
2018-11-25T16:45:17.073Z,0
2018-11-25T16:50:24.496Z,0
2018-11-25T16:55:16.112Z,0
2018-11-25T17:00:16.931Z,0
2018-11-25T17:05:16.384Z,0
2018-11-25T17:10:16.040Z,0
2018-11-25T17:15:16.307Z,0
2018-11-25T17:20:17.192Z,0
2018-11-25T17:25:16.043Z,0
2018-11-25T17:30:16.324Z,0
2018-11-25T17:35:16.812Z,0
2018-11-25T17:40:16.638Z,0
2018-11-25T17:45:16.448Z,0
2018-11-25T17:50:16.265Z,0
2018-11-25T17:55:16.120Z,0
2018-11-25T18:00:16.104Z,0
2018-11-25T18:05:16.112Z,0
2018-11-25T18:10:17.773Z,0
2018-11-25T18:15:19.057Z,0
2018-11-25T18:20:17.524Z,0
2018-11-25T18:25:16.145Z,0
2018-11-25T18:30:16.610Z,0
2018-11-25T18:35:19.189Z,0
2018-11-25T18:40:20.560Z,0
2018-11-25T18:45:20.067Z,0
2018-11-25T18:50:16.337Z,0
2018-11-25T18:55:16.283Z,0
2018-11-25T19:02:26.198Z,0
2018-11-25T19:05:18.062Z,0
2018-11-25T19:10:15.897Z,0
2018-11-25T19:15:16.527Z,0
2018-11-25T19:20:15.967Z,0
2018-11-25T19:25:19.379Z,0
2018-11-25T19:30:17.813Z,0
2018-11-25T19:35:17.945Z,0
2018-11-25T19:40:18.266Z,0
2018-11-25T19:45:15.953Z,0
2018-11-25T19:50:16.720Z,0
2018-11-25T19:55:17.318Z,0
2018-11-25T20:00:16.338Z,0
2018-11-25T20:05:17.347Z,0
2018-11-25T20:10:18.112Z,0
2018-11-25T20:15:15.834Z,0
2018-11-25T20:20:16.746Z,0
2018-11-25T20:25:17.048Z,0
2018-11-25T20:30:19.833Z,0
2018-11-25T20:35:16.469Z,0
2018-11-25T20:40:15.890Z,0
2018-11-25T20:45:15.732Z,0
2018-11-25T20:50:16.478Z,0
2018-11-25T20:55:17.198Z,0
2018-11-25T21:00:17.202Z,0
2018-11-25T21:05:16.137Z,0
2018-11-25T21:10:17.033Z,0
2018-11-25T21:15:16.041Z,0
2018-11-25T21:20:16.761Z,0
2018-11-25T21:25:16.801Z,0
2018-11-25T21:30:17.690Z,0
2018-11-25T21:35:15.626Z,0
2018-11-25T21:40:15.896Z,0
2018-11-25T21:45:16.937Z,0
2018-11-25T21:50:17.441Z,0
2018-11-25T21:55:15.564Z,0
2018-11-25T22:00:17.543Z,0
2018-11-25T22:05:16.197Z,0
2018-11-25T22:10:18.462Z,0
2018-11-25T22:15:15.973Z,0
2018-11-25T22:20:16.673Z,0
2018-11-25T22:25:16.839Z,0
2018-11-25T22:30:18.736Z,0
2018-11-25T22:35:16.780Z,0
2018-11-25T22:40:15.534Z,0
2018-11-25T22:45:16.567Z,0
2018-11-25T22:50:16.525Z,0
2018-11-25T22:55:15.710Z,0
2018-11-25T23:00:16.058Z,0
2018-11-25T23:05:18.221Z,0
2018-11-25T23:10:15.700Z,0
2018-11-25T23:15:15.946Z,0
2018-11-25T23:20:16.779Z,0
2018-11-25T23:25:15.983Z,0
2018-11-25T23:30:19.048Z,0
2018-11-25T23:35:15.517Z,0
2018-11-25T23:40:16.611Z,0
2018-11-25T23:45:15.555Z,0
2018-11-25T23:50:15.454Z,0
2018-11-25T23:55:16.935Z,0
